Time;durP1;ratioP1;P1;durP2;ratioP2;P2;SDS_P1;SDS_P2;PMS_P1;PMS_P2;Temp;Humidity;BMP_temperature;BMP_pressure;BME280_temperature;BME280_humidity;BME280_pressure;Samples;Min_cycle;Max_cycle;Signal;HPM_P1;HPM_P2
2024/02/16 00:02:18;;;;;;;6.38;1.92;;;12.70;99.90;;;;;;5035997;28;20437;-41
2024/02/16 00:04:44;;;;;;;4.80;1.98;;;12.60;99.90;;;;;;5052776;28;20028;-40
2024/02/16 00:07:10;;;;;;;2.95;1.20;;;12.60;99.90;;;;;;5041763;28;20029;-40
2024/02/16 00:09:36;;;;;;;4.18;2.05;;;12.60;99.90;;;;;;5034390;28;20029;-42
2024/02/16 00:12:01;;;;;;;3.28;2.30;;;12.60;99.90;;;;;;5048011;28;20022;-40
2024/02/16 00:14:27;;;;;;;2.90;1.30;;;12.50;99.90;;;;;;5046356;28;20419;-40
2024/02/16 00:16:53;;;;;;;2.55;1.40;;;12.60;99.90;;;;;;5047641;28;20030;-44
2024/02/16 00:19:18;;;;;;;5.03;2.30;;;12.60;99.90;;;;;;5033707;28;20044;-39
2024/02/16 00:21:44;;;;;;;8.20;1.77;;;12.60;99.90;;;;;;5042058;28;20017;-41
2024/02/16 00:24:10;;;;;;;5.15;1.77;;;12.60;99.90;;;;;;5043764;28;20056;-40
2024/02/16 00:26:36;;;;;;;3.75;1.60;;;12.50;99.90;;;;;;5034302;28;20502;-40
2024/02/16 00:29:02;;;;;;;2.35;1.20;;;12.60;99.90;;;;;;5034637;28;20037;-38
2024/02/16 00:31:28;;;;;;;4.90;1.80;;;12.60;99.90;;;;;;5035386;28;20070;-41
2024/02/16 00:33:53;;;;;;;3.38;1.80;;;12.60;99.90;;;;;;5046670;28;20029;-53
2024/02/16 00:36:19;;;;;;;4.97;1.70;;;12.50;99.90;;;;;;5033942;28;20028;-54
2024/02/16 00:38:46;;;;;;;2.60;1.67;;;12.50;99.90;;;;;;5037293;28;20082;-53
2024/02/16 00:41:23;;;;;;;5.18;1.80;;;12.50;99.90;;;;;;5037685;28;20550;-53
2024/02/16 00:43:49;;;;;;;2.80;1.65;;;12.50;99.90;;;;;;5041970;28;20493;-54
2024/02/16 00:46:15;;;;;;;5.97;1.55;;;12.50;99.90;;;;;;5046045;28;20025;-54
2024/02/16 00:48:40;;;;;;;2.45;1.50;;;12.40;99.90;;;;;;5033640;28;20120;-52
2024/02/16 00:51:06;;;;;;;2.88;1.90;;;12.40;99.90;;;;;;5034213;28;20426;-53
2024/02/16 00:53:32;;;;;;;2.05;1.67;;;12.40;99.90;;;;;;5043484;28;20534;-54
2024/02/16 00:55:57;;;;;;;9.05;1.85;;;12.40;99.90;;;;;;5034784;28;20072;-53
2024/02/16 00:58:23;;;;;;;3.22;1.60;;;12.40;99.90;;;;;;5032313;28;20484;-53
2024/02/16 01:00:49;;;;;;;2.97;1.33;;;12.40;99.90;;;;;;5034412;28;20729;-54
2024/02/16 01:03:14;;;;;;;1.65;1.40;;;12.40;99.90;;;;;;5031603;28;20026;-54
2024/02/16 01:05:40;;;;;;;3.83;1.50;;;12.40;99.90;;;;;;5033438;28;20034;-54
2024/02/16 01:08:07;;;;;;;4.28;1.42;;;12.40;99.90;;;;;;5033411;28;20498;-54
2024/02/16 01:10:32;;;;;;;2.35;1.30;;;12.40;99.90;;;;;;5037247;28;20039;-54
2024/02/16 01:12:58;;;;;;;2.15;1.40;;;12.40;99.90;;;;;;5052323;28;20503;-53
2024/02/16 01:15:24;;;;;;;3.13;1.50;;;12.40;99.90;;;;;;5038062;28;20017;-54
2024/02/16 01:17:50;;;;;;;3.63;1.40;;;12.40;99.90;;;;;;5042458;28;20075;-53
2024/02/16 01:20:15;;;;;;;1.90;1.52;;;12.40;99.90;;;;;;5033010;28;20021;-53
2024/02/16 01:22:41;;;;;;;3.63;1.77;;;12.50;99.90;;;;;;5033326;28;20096;-54
2024/02/16 01:25:08;;;;;;;2.35;1.50;;;12.50;99.90;;;;;;5033274;28;20024;-52
2024/02/16 01:27:35;;;;;;;1.60;1.25;;;12.50;99.90;;;;;;5031814;28;20017;-52
2024/02/16 01:30:01;;;;;;;3.42;1.90;;;12.50;99.90;;;;;;5035195;28;20017;-54
2024/02/16 01:32:26;;;;;;;1.88;1.40;;;12.50;99.90;;;;;;5049759;28;20167;-58
2024/02/16 01:34:52;;;;;;;2.17;1.40;;;12.50;99.90;;;;;;5032751;28;20029;-54
2024/02/16 01:37:18;;;;;;;1.98;1.50;;;12.40;99.90;;;;;;5033856;28;20026;-53
2024/02/16 01:39:44;;;;;;;3.17;1.17;;;12.40;99.90;;;;;;5032706;28;20474;-54
2024/02/16 01:42:11;;;;;;;3.92;1.55;;;12.40;99.90;;;;;;5033771;28;20482;-54
2024/02/16 01:44:37;;;;;;;1.70;1.52;;;12.30;99.90;;;;;;5032088;28;20108;-61
2024/02/16 01:47:04;;;;;;;10.23;1.40;;;12.30;99.90;;;;;;5050052;28;20025;-54
2024/02/16 01:49:30;;;;;;;3.10;1.92;;;12.30;99.90;;;;;;5036113;28;20037;-54
2024/02/16 01:51:56;;;;;;;7.35;1.52;;;12.40;99.90;;;;;;5035403;28;20029;-52
2024/02/16 01:54:23;;;;;;;2.00;1.58;;;12.30;99.90;;;;;;5051282;28;20025;-55
2024/02/16 01:56:50;;;;;;;4.00;2.33;;;12.40;99.90;;;;;;5052575;28;20049;-54
2024/02/16 01:59:16;;;;;;;4.27;1.70;;;12.40;99.90;;;;;;5052684;28;20420;-55
2024/02/16 02:01:42;;;;;;;2.35;1.60;;;12.50;99.90;;;;;;5048730;28;20486;-52
2024/02/16 02:04:08;;;;;;;3.92;1.75;;;12.70;99.90;;;;;;5051173;28;20028;-51
2024/02/16 02:06:34;;;;;;;5.78;1.85;;;12.60;99.90;;;;;;5042609;28;20037;-53
2024/02/16 02:08:59;;;;;;;7.30;1.60;;;12.60;99.90;;;;;;5050128;28;20425;-54
2024/02/16 02:11:25;;;;;;;3.72;1.25;;;12.50;99.90;;;;;;5051883;28;20029;-53
2024/02/16 02:13:50;;;;;;;2.38;1.77;;;12.40;99.90;;;;;;5051629;28;20033;-54
2024/02/16 02:16:18;;;;;;;7.93;1.85;;;12.30;99.90;;;;;;5046845;28;20060;-53
2024/02/16 02:18:44;;;;;;;1.88;1.58;;;12.30;99.90;;;;;;5047257;28;20127;-57
2024/02/16 02:21:10;;;;;;;3.00;1.40;;;12.30;99.90;;;;;;5033394;28;20101;-53
2024/02/16 02:23:35;;;;;;;13.15;1.83;;;12.20;99.90;;;;;;5032111;28;20026;-52
2024/02/16 02:26:01;;;;;;;6.20;2.28;;;12.20;99.90;;;;;;5034853;28;20075;-52
2024/02/16 02:28:27;;;;;;;3.13;1.75;;;12.10;99.90;;;;;;5050965;28;20025;-53
2024/02/16 02:30:53;;;;;;;3.70;1.23;;;12.10;99.90;;;;;;5034829;28;20072;-54
2024/02/16 02:33:19;;;;;;;1.67;1.40;;;12.10;99.90;;;;;;5032584;28;20497;-54
2024/02/16 02:35:46;;;;;;;5.07;1.85;;;12.10;99.90;;;;;;5032593;28;20398;-55
2024/02/16 02:38:12;;;;;;;2.35;1.65;;;12.10;99.90;;;;;;5032324;28;20018;-53
2024/02/16 02:40:38;;;;;;;2.50;1.65;;;12.10;99.90;;;;;;5034862;28;20026;-54
2024/02/16 02:43:03;;;;;;;3.28;1.27;;;12.10;99.90;;;;;;5034093;28;20533;-54
2024/02/16 02:45:29;;;;;;;3.58;1.92;;;12.00;99.90;;;;;;5034781;28;20033;-54
2024/02/16 02:50:39;;;;;;;5.57;1.60;;;12.00;99.90;;;;;;5033327;28;20562;-54
2024/02/16 02:53:04;;;;;;;2.00;1.50;;;12.10;99.90;;;;;;5032165;28;20038;-54
2024/02/16 02:55:30;;;;;;;2.05;1.67;;;12.00;99.90;;;;;;5033308;28;20478;-37
2024/02/16 02:57:57;;;;;;;3.38;1.50;;;12.00;99.90;;;;;;5035815;28;20029;-38
2024/02/16 03:00:26;;;;;;;2.35;1.60;;;12.00;99.90;;;;;;5036535;28;20052;-40
2024/02/16 03:02:52;;;;;;;3.97;1.63;;;12.00;99.90;;;;;;5035430;28;20482;-39
2024/02/16 03:05:19;;;;;;;3.40;1.60;;;12.00;99.90;;;;;;5035770;28;20025;-38
2024/02/16 03:07:45;;;;;;;7.50;1.83;;;11.90;99.90;;;;;;5035843;28;20052;-38
2024/02/16 03:10:11;;;;;;;2.28;2.08;;;11.90;99.90;;;;;;5052204;28;20033;-39
2024/02/16 03:12:36;;;;;;;4.75;1.42;;;11.90;99.90;;;;;;5055159;28;20039;-39
2024/02/16 03:15:03;;;;;;;4.28;1.58;;;11.90;99.90;;;;;;5040477;28;20017;-41
2024/02/16 03:17:29;;;;;;;3.53;2.17;;;11.90;99.90;;;;;;5040282;28;20533;-37
2024/02/16 03:19:55;;;;;;;2.80;1.52;;;11.90;99.90;;;;;;5038085;28;20101;-37
2024/02/16 03:22:20;;;;;;;3.92;1.55;;;11.90;99.90;;;;;;5035670;28;20057;-39
2024/02/16 03:24:47;;;;;;;2.63;1.80;;;11.90;99.90;;;;;;5035379;28;20099;-39
2024/02/16 03:27:14;;;;;;;5.75;1.85;;;11.90;99.90;;;;;;5035240;28;20064;-39
2024/02/16 03:29:39;;;;;;;4.03;1.45;;;11.90;99.90;;;;;;5048530;28;20525;-41
2024/02/16 03:32:05;;;;;;;5.45;1.73;;;11.80;99.90;;;;;;5053973;28;20180;-41
2024/02/16 03:34:31;;;;;;;3.22;2.13;;;11.80;99.90;;;;;;5049329;28;20088;-38
2024/02/16 03:36:58;;;;;;;6.07;3.38;;;11.80;99.90;;;;;;5035125;28;20032;-38
2024/02/16 03:39:24;;;;;;;2.75;1.23;;;11.80;99.90;;;;;;5047789;28;20107;-40
2024/02/16 03:41:50;;;;;;;4.63;1.63;;;11.90;99.90;;;;;;5054939;28;20539;-38
2024/02/16 03:44:16;;;;;;;3.20;1.67;;;11.80;99.90;;;;;;5039397;28;20066;-42
2024/02/16 03:46:43;;;;;;;2.90;1.85;;;11.80;99.90;;;;;;5051439;28;20021;-52
2024/02/16 03:49:10;;;;;;;4.00;2.13;;;11.80;99.90;;;;;;5044092;28;20508;-53
2024/02/16 03:51:36;;;;;;;2.88;1.73;;;11.80;99.90;;;;;;5034906;28;20824;-54
2024/02/16 03:54:02;;;;;;;9.57;1.67;;;11.80;99.90;;;;;;5037393;28;20506;-52
2024/02/16 03:56:28;;;;;;;2.20;1.70;;;11.80;99.90;;;;;;5034823;28;20115;-54
2024/02/16 03:58:54;;;;;;;2.45;1.65;;;11.80;99.90;;;;;;5034624;28;20120;-54
2024/02/16 04:01:19;;;;;;;2.92;1.80;;;11.80;99.90;;;;;;5034547;28;20034;-52
2024/02/16 04:03:45;;;;;;;6.88;1.67;;;11.80;99.90;;;;;;5034223;28;20108;-53
2024/02/16 04:06:10;;;;;;;4.25;1.50;;;11.80;99.90;;;;;;5035496;28;20504;-39
2024/02/16 04:08:36;;;;;;;6.55;1.73;;;11.80;99.90;;;;;;5046443;28;20437;-45
2024/02/16 04:11:02;;;;;;;2.60;1.73;;;11.80;99.90;;;;;;5034495;28;20036;-38
2024/02/16 04:13:28;;;;;;;4.35;1.65;;;11.80;99.90;;;;;;5042035;28;20421;-42
2024/02/16 04:15:54;;;;;;;2.67;1.38;;;11.80;99.90;;;;;;5054311;28;20127;-48
2024/02/16 04:18:19;;;;;;;4.47;1.92;;;11.80;99.90;;;;;;5034482;28;20044;-39
2024/02/16 04:20:45;;;;;;;3.17;1.63;;;11.80;99.90;;;;;;5046351;28;20032;-40
2024/02/16 04:23:11;;;;;;;7.43;2.22;;;11.80;99.90;;;;;;5053475;28;20079;-40
2024/02/16 04:25:36;;;;;;;3.10;1.80;;;11.70;99.90;;;;;;5054435;28;20417;-41
2024/02/16 04:28:02;;;;;;;5.38;2.40;;;11.80;99.90;;;;;;5053338;28;20025;-40
2024/02/16 04:30:28;;;;;;;3.30;1.65;;;11.70;99.90;;;;;;5053111;28;20457;-40
2024/02/16 04:32:53;;;;;;;4.82;1.65;;;11.60;99.90;;;;;;5048269;28;20470;-40
2024/02/16 04:35:19;;;;;;;1.80;1.70;;;11.60;99.90;;;;;;5034140;28;20066;-39
2024/02/16 04:37:44;;;;;;;2.65;1.92;;;11.60;99.90;;;;;;5042096;28;20545;-43
2024/02/16 04:40:12;;;;;;;2.97;1.83;;;11.60;99.90;;;;;;5053767;28;20029;-39
2024/02/16 04:42:40;;;;;;;5.93;2.30;;;11.60;99.90;;;;;;5054089;28;20481;-45
2024/02/16 04:45:06;;;;;;;;;;;11.60;99.90;;;;;;5052487;28;20497;-38
2024/02/16 04:47:31;;;;;;;4.78;1.80;;;11.60;99.90;;;;;;5052998;28;19908;-41
2024/02/16 04:49:57;;;;;;;2.30;1.67;;;11.60;99.90;;;;;;5053583;28;20025;-39
2024/02/16 04:52:23;;;;;;;2.22;1.70;;;11.60;99.90;;;;;;5049976;28;20521;-40
2024/02/16 04:54:48;;;;;;;1.95;1.67;;;11.50;99.90;;;;;;5033308;28;20440;-38
2024/02/16 04:57:14;;;;;;;3.13;2.00;;;11.50;99.90;;;;;;5033509;28;20018;-39
2024/02/16 04:59:39;;;;;;;2.30;2.00;;;11.40;99.90;;;;;;5033460;28;20075;-43
2024/02/16 05:02:06;;;;;;;3.25;2.00;;;11.40;99.90;;;;;;5033489;28;20029;-40
2024/02/16 05:04:32;;;;;;;3.63;1.80;;;11.40;99.90;;;;;;5046216;28;20075;-40
2024/02/16 05:06:58;;;;;;;4.30;2.22;;;11.40;99.90;;;;;;5052341;28;20032;-39
2024/02/16 05:09:26;;;;;;;2.80;1.80;;;11.40;99.90;;;;;;5051266;28;20034;-40
2024/02/16 05:11:51;;;;;;;;;;;11.40;99.90;;;;;;5033611;28;20033;-38
2024/02/16 05:14:17;;;;;;;3.25;2.47;;;11.40;99.90;;;;;;5033431;28;20011;-38
2024/02/16 05:16:47;;;;;;;3.60;1.77;;;11.40;99.90;;;;;;5031992;28;20041;-53
2024/02/16 05:19:13;;;;;;;4.47;2.83;;;11.40;99.90;;;;;;5032811;28;20044;-52
2024/02/16 05:21:38;;;;;;;5.53;1.80;;;11.50;99.90;;;;;;5033181;28;20486;-53
2024/02/16 05:24:04;;;;;;;3.08;1.92;;;11.50;99.90;;;;;;5032998;28;20030;-55
2024/02/16 05:26:30;;;;;;;2.97;1.67;;;11.50;99.90;;;;;;5033073;28;20033;-52
2024/02/16 05:28:55;;;;;;;2.75;1.80;;;11.50;99.90;;;;;;5046776;28;20512;-55
2024/02/16 05:31:21;;;;;;;1.92;1.60;;;11.60;99.90;;;;;;5052981;28;20036;-54
2024/02/16 05:33:51;;;;;;;5.00;2.05;;;11.60;99.90;;;;;;5052859;28;20040;-55
2024/02/16 05:36:27;;;;;;;9.20;2.03;;;11.60;99.90;;;;;;5052871;28;20021;-54
2024/02/16 05:38:54;;;;;;;2.72;1.65;;;11.70;99.90;;;;;;5047524;28;20377;-55
2024/02/16 05:41:20;;;;;;;6.68;2.22;;;11.70;99.90;;;;;;5052793;28;20106;-55
2024/02/16 05:43:46;;;;;;;2.33;2.13;;;11.70;99.90;;;;;;5042085;28;20081;-55
2024/02/16 05:46:16;;;;;;;2.78;2.08;;;11.80;99.90;;;;;;5032830;28;20025;-53
2024/02/16 05:48:42;;;;;;;2.60;1.50;;;11.80;99.90;;;;;;5032702;28;20478;-52
2024/02/16 05:51:08;;;;;;;4.15;2.33;;;11.80;99.90;;;;;;5032792;28;20018;-54
2024/02/16 05:53:34;;;;;;;2.53;1.90;;;11.80;99.90;;;;;;5043820;28;20417;-54
2024/02/16 05:56:00;;;;;;;5.93;2.47;;;11.90;99.90;;;;;;5050894;28;20060;-57
2024/02/16 05:58:26;;;;;;;7.85;2.45;;;11.90;99.90;;;;;;5033834;28;20052;-54
2024/02/16 06:00:54;;;;;;;5.60;2.28;;;11.90;99.90;;;;;;5031533;28;20026;-55
2024/02/16 06:03:20;;;;;;;2.63;1.98;;;11.90;99.90;;;;;;5032355;28;20482;-54
2024/02/16 06:05:46;;;;;;;5.32;2.15;;;11.90;99.90;;;;;;5031374;28;20032;-54
2024/02/16 06:08:12;;;;;;;3.83;1.98;;;11.90;99.90;;;;;;5032626;28;20026;-55
2024/02/16 06:10:38;;;;;;;5.45;2.70;;;12.00;99.90;;;;;;5032485;28;20036;-54
2024/02/16 06:13:03;;;;;;;5.65;2.10;;;12.00;99.90;;;;;;5032823;28;20021;-54
2024/02/16 06:15:29;;;;;;;2.90;2.00;;;12.00;99.90;;;;;;5032663;28;20052;-54
2024/02/16 06:17:55;;;;;;;2.15;1.85;;;12.00;99.90;;;;;;5031177;28;20037;-55
2024/02/16 06:20:21;;;;;;;5.70;2.40;;;12.10;99.90;;;;;;5032466;28;20121;-55
2024/02/16 06:22:47;;;;;;;5.88;2.88;;;12.10;99.90;;;;;;5036639;28;20481;-54
2024/02/16 06:25:13;;;;;;;3.97;2.03;;;12.10;99.90;;;;;;5032498;28;20046;-40
2024/02/16 06:27:38;;;;;;;2.67;1.80;;;12.20;99.90;;;;;;5032257;28;20056;-41
2024/02/16 06:30:04;;;;;;;4.18;2.20;;;12.20;99.90;;;;;;5033896;28;20018;-41
2024/02/16 06:32:31;;;;;;;4.78;2.10;;;12.20;99.90;;;;;;5036553;28;20033;-45
2024/02/16 06:34:57;;;;;;;9.48;2.03;;;12.30;99.90;;;;;;5036444;28;20061;-39
2024/02/16 06:37:22;;;;;;;3.03;1.80;;;12.30;99.90;;;;;;5045163;28;20428;-43
2024/02/16 06:39:48;;;;;;;6.75;2.00;;;12.30;99.90;;;;;;5056056;28;20381;-38
2024/02/16 06:42:14;;;;;;;2.28;2.08;;;12.30;99.90;;;;;;5055145;28;20517;-42
2024/02/16 06:44:40;;;;;;;5.25;1.92;;;12.40;99.90;;;;;;5053940;28;20035;-41
2024/02/16 06:47:06;;;;;;;5.25;2.25;;;12.40;99.90;;;;;;5055473;28;20079;-39
2024/02/16 06:49:31;;;;;;;4.80;2.40;;;12.40;99.90;;;;;;5055965;28;20024;-43
2024/02/16 06:51:57;;;;;;;5.95;2.40;;;12.30;99.90;;;;;;5043435;28;20021;-38
2024/02/16 06:54:24;;;;;;;2.83;1.92;;;12.30;99.90;;;;;;5055674;28;20143;-40
2024/02/16 06:56:51;;;;;;;4.25;2.05;;;12.30;99.90;;;;;;5049226;28;20454;-38
2024/02/16 06:59:17;;;;;;;5.13;2.05;;;12.20;99.90;;;;;;5035755;28;20051;-38
2024/02/16 07:01:43;;;;;;;2.58;2.08;;;12.20;99.90;;;;;;5035710;28;20022;-40
2024/02/16 07:04:09;;;;;;;7.85;2.47;;;12.20;99.90;;;;;;5035510;28;20048;-40
2024/02/16 07:06:35;;;;;;;5.07;2.70;;;12.20;99.90;;;;;;5038619;28;20363;-48
2024/02/16 07:09:02;;;;;;;6.15;2.00;;;12.20;99.90;;;;;;5054658;28;20078;-41
2024/02/16 07:11:28;;;;;;;4.68;2.42;;;12.20;99.90;;;;;;5055086;28;20025;-40
2024/02/16 07:13:54;;;;;;;4.82;2.50;;;12.30;99.90;;;;;;5047063;28;20116;-40
2024/02/16 07:16:20;;;;;;;8.02;3.55;;;12.30;99.90;;;;;;5035434;28;20416;-41
2024/02/16 07:18:46;;;;;;;2.78;2.40;;;12.30;99.90;;;;;;5041955;28;20033;-42
2024/02/16 07:21:11;;;;;;;3.63;2.05;;;12.30;99.90;;;;;;5055492;28;20021;-41
2024/02/16 07:23:38;;;;;;;6.05;2.20;;;12.30;99.90;;;;;;5035676;28;20025;-39
2024/02/16 07:26:04;;;;;;;2.88;1.88;;;12.40;99.90;;;;;;5035129;28;20022;-40
2024/02/16 07:28:31;;;;;;;3.78;2.72;;;12.40;99.90;;;;;;5040328;28;20041;-39
2024/02/16 07:30:57;;;;;;;3.85;2.03;;;12.50;99.90;;;;;;5050391;28;20032;-41
2024/02/16 07:33:24;;;;;;;5.40;2.55;;;12.60;99.90;;;;;;5035050;28;20033;-39
2024/02/16 07:35:51;;;;;;;6.83;3.40;;;12.60;99.90;;;;;;5035187;28;20101;-39
2024/02/16 07:38:17;;;;;;;4.10;2.80;;;12.60;99.90;;;;;;5039647;28;20036;-41
2024/02/16 07:40:45;;;;;;;5.63;2.35;;;12.70;99.90;;;;;;5054316;28;20021;-39
2024/02/16 07:43:11;;;;;;;6.70;2.88;;;12.70;99.90;;;;;;5038287;28;20478;-38
2024/02/16 07:45:37;;;;;;;6.18;2.50;;;12.70;99.90;;;;;;5055088;28;20021;-40
2024/02/16 07:48:05;;;;;;;4.45;2.88;;;12.70;99.90;;;;;;5048980;28;20390;-39
2024/02/16 07:50:31;;;;;;;6.20;2.83;;;12.70;99.90;;;;;;5034746;28;20489;-40
2024/02/16 07:52:57;;;;;;;4.63;2.60;;;12.80;99.90;;;;;;5047816;28;20025;-40
2024/02/16 07:55:24;;;;;;;7.57;2.97;;;12.80;99.90;;;;;;5054700;28;20021;-42
2024/02/16 07:57:50;;;;;;;6.10;3.03;;;12.90;99.90;;;;;;5053042;28;20025;-41
2024/02/16 08:00:17;;;;;;;5.82;2.63;;;12.80;99.90;;;;;;5034571;28;20025;-42
2024/02/16 08:02:45;;;;;;;4.63;2.70;;;12.90;99.90;;;;;;5041736;28;20462;-42
2024/02/16 08:05:12;;;;;;;3.05;2.80;;;12.90;99.90;;;;;;5036718;28;20022;-40
2024/02/16 08:07:42;;;;;;;2.33;1.87;;;12.90;99.90;;;;;;5038636;28;20474;-41
2024/02/16 08:10:08;;;;;;;5.43;2.75;;;13.00;99.90;;;;;;5035829;28;20130;-39
2024/02/16 08:12:35;;;;;;;5.13;2.75;;;12.90;99.90;;;;;;5036036;28;20025;-44
2024/02/16 08:15:06;;;;;;;4.95;2.60;;;12.90;99.90;;;;;;5050982;28;20549;-44
2024/02/16 08:17:36;;;;;;;3.17;2.28;;;13.00;99.90;;;;;;5034218;28;20374;-39
2024/02/16 08:20:02;;;;;;;7.72;2.75;;;13.10;99.90;;;;;;5034243;28;20478;-41
2024/02/16 08:22:28;;;;;;;6.93;2.72;;;13.10;99.90;;;;;;5035132;28;20018;-44
2024/02/16 08:24:54;;;;;;;5.25;2.60;;;13.10;99.90;;;;;;5034642;28;20031;-41
2024/02/16 08:27:20;;;;;;;5.05;2.45;;;13.20;99.90;;;;;;5036045;28;20103;-40
2024/02/16 08:29:46;;;;;;;5.25;2.63;;;13.30;99.90;;;;;;5054263;28;20516;-40
2024/02/16 08:32:12;;;;;;;4.45;2.42;;;13.30;99.90;;;;;;5052005;28;20021;-40
2024/02/16 08:34:38;;;;;;;3.60;2.67;;;13.30;99.90;;;;;;5033805;28;20483;-40
2024/02/16 08:37:05;;;;;;;10.07;3.42;;;13.40;99.90;;;;;;5033890;28;20045;-39
2024/02/16 08:39:31;;;;;;;3.65;2.45;;;13.40;99.90;;;;;;5052282;28;20485;-40
2024/02/16 08:41:58;;;;;;;7.03;2.72;;;13.50;99.90;;;;;;5036495;28;20386;-39
2024/02/16 08:44:24;;;;;;;5.53;2.80;;;13.50;99.90;;;;;;5033717;28;20033;-44
2024/02/16 08:46:50;;;;;;;8.40;2.92;;;13.50;99.90;;;;;;5033706;28;20402;-39
2024/02/16 08:49:16;;;;;;;4.57;2.58;;;13.50;99.90;;;;;;5033918;28;20532;-42
2024/02/16 08:51:42;;;;;;;9.02;3.78;;;13.50;99.90;;;;;;5033682;28;20033;-43
2024/02/16 08:54:08;;;;;;;6.40;3.00;;;13.60;99.90;;;;;;5033407;28;20029;-41
2024/02/16 08:56:35;;;;;;;3.60;2.35;;;13.60;99.90;;;;;;5034494;28;20025;-40
2024/02/16 08:59:02;;;;;;;4.57;3.42;;;13.60;99.90;;;;;;5047213;28;20032;-41
2024/02/16 09:01:35;;;;;;;7.13;2.75;;;13.60;99.90;;;;;;5040587;28;20412;-41
2024/02/16 09:04:01;;;;;;;8.75;2.78;;;13.70;99.90;;;;;;5033061;28;20048;-42
2024/02/16 09:06:28;;;;;;;6.43;3.45;;;13.60;99.90;;;;;;5036493;28;20447;-41
2024/02/16 09:08:54;;;;;;;4.88;3.40;;;13.60;99.90;;;;;;5033399;28;20022;-40
2024/02/16 09:11:20;;;;;;;6.13;3.40;;;13.60;99.90;;;;;;5033154;28;20033;-40
2024/02/16 09:13:45;;;;;;;4.28;3.10;;;13.50;99.90;;;;;;5048686;28;20505;-41
2024/02/16 09:16:11;;;;;;;3.90;2.70;;;13.60;99.90;;;;;;5036431;28;20022;-41
2024/02/16 09:18:40;;;;;;;5.72;2.90;;;13.50;99.90;;;;;;5032983;28;20030;-41
2024/02/16 09:21:06;;;;;;;4.82;2.83;;;13.50;99.90;;;;;;5032779;28;20033;-40
2024/02/16 09:23:33;;;;;;;11.85;3.17;;;13.60;99.90;;;;;;5033199;28;20053;-43
2024/02/16 09:25:59;;;;;;;7.82;3.05;;;13.60;99.90;;;;;;5033090;28;20029;-47
2024/02/16 09:28:26;;;;;;;6.50;2.97;;;13.60;99.90;;;;;;5035847;28;20029;-41
2024/02/16 09:30:55;;;;;;;6.22;3.55;;;13.50;99.90;;;;;;5036560;28;20359;-45
2024/02/16 09:33:21;;;;;;;10.40;2.83;;;13.50;99.90;;;;;;5032698;28;20109;-45
2024/02/16 09:35:47;;;;;;;6.60;3.30;;;13.50;99.90;;;;;;5032918;28;20037;-40
2024/02/16 09:38:13;;;;;;;9.43;3.40;;;13.60;99.90;;;;;;5041456;28;20017;-44
2024/02/16 09:40:39;;;;;;;5.20;3.40;;;13.60;99.90;;;;;;5043375;28;20033;-40
2024/02/16 09:43:05;;;;;;;4.90;3.10;;;13.70;99.90;;;;;;5040013;28;20021;-48
2024/02/16 09:45:32;;;;;;;4.95;2.63;;;13.80;99.90;;;;;;5052687;28;20087;-43
2024/02/16 09:47:59;;;;;;;10.25;3.10;;;13.80;99.90;;;;;;5052754;28;20021;-43
2024/02/16 09:50:26;;;;;;;5.55;2.80;;;13.70;99.90;;;;;;5049505;28;20466;-41
2024/02/16 09:52:54;;;;;;;7.95;3.90;;;13.70;99.90;;;;;;5052481;28;20072;-40
2024/02/16 09:55:20;;;;;;;4.65;3.15;;;13.60;99.90;;;;;;5051378;28;20028;-39
2024/02/16 09:57:45;;;;;;;7.90;3.47;;;13.60;99.90;;;;;;5031043;28;20112;-42
2024/02/16 10:00:13;;;;;;;5.57;3.00;;;13.60;99.90;;;;;;5032275;28;20482;-42
2024/02/16 10:02:46;;;;;;;5.68;3.40;;;13.60;99.90;;;;;;5048883;28;20502;-42
2024/02/16 10:05:16;;;;;;;11.05;3.45;;;13.60;99.90;;;;;;5044162;28;20032;-41
2024/02/16 10:07:43;;;;;;;9.32;3.47;;;13.60;99.90;;;;;;5056746;28;20013;-44
2024/02/16 10:10:30;;;;;;;15.65;3.42;;;13.70;99.90;;;;;;5054243;28;20071;-42
2024/02/16 10:13:06;;;;;;;9.43;3.35;;;13.60;99.90;;;;;;5036929;28;20021;-42
2024/02/16 10:15:35;;;;;;;6.88;3.50;;;13.60;99.90;;;;;;5036976;28;20528;-38
2024/02/16 10:18:05;;;;;;;9.90;4.00;;;13.50;99.90;;;;;;5037006;28;20045;-35
2024/02/16 10:20:32;;;;;;;7.57;3.75;;;13.40;99.90;;;;;;5037787;28;20551;-38
2024/02/16 10:23:12;;;;;;;7.70;3.92;;;13.30;99.90;;;;;;5036622;28;20029;-37
2024/02/16 10:25:40;;;;;;;10.48;3.97;;;13.20;99.90;;;;;;5047821;28;20030;-39
2024/02/16 10:28:10;;;;;;;8.02;4.22;;;13.10;99.90;;;;;;5036771;28;20026;-40
2024/02/16 10:30:40;;;;;;;10.82;3.88;;;13.00;99.90;;;;;;5036381;28;20040;-45
2024/02/16 10:33:09;;;;;;;10.07;4.35;;;13.00;99.90;;;;;;5036628;28;20072;-46
2024/02/16 10:35:35;;;;;;;10.82;4.18;;;12.90;99.90;;;;;;5051525;28;20017;-39
2024/02/16 10:38:11;;;;;;;6.72;4.47;;;12.80;99.90;;;;;;5054525;28;20070;-41
2024/02/16 10:40:41;;;;;;;14.73;5.38;;;12.80;99.90;;;;;;5052952;28;20478;-45
2024/02/16 10:43:09;;;;;;;13.95;6.22;;;12.80;99.90;;;;;;5053631;28;20021;-42
2024/02/16 10:45:36;;;;;;;18.23;7.55;;;12.70;99.90;;;;;;5050115;28;20513;-40
2024/02/16 10:48:06;;;;;;;16.27;7.90;;;12.70;99.90;;;;;;5037037;28;20025;-39
2024/02/16 10:50:34;;;;;;;19.92;7.65;;;12.70;99.90;;;;;;5036194;28;20466;-42
2024/02/16 10:53:11;;;;;;;12.10;6.65;;;12.60;99.90;;;;;;5037603;28;20021;-43
2024/02/16 10:55:37;;;;;;;11.77;4.75;;;12.50;99.90;;;;;;5036044;28;20129;-41
2024/02/16 10:58:03;;;;;;;18.08;7.68;;;12.50;99.90;;;;;;5036187;28;20470;-38
2024/02/16 11:00:29;;;;;;;16.55;6.90;;;12.50;99.90;;;;;;5034385;28;20171;-44
2024/02/16 11:03:01;;;;;;;18.48;7.20;;;12.50;99.90;;;;;;5044085;28;20074;-40
2024/02/16 11:05:42;;;;;;;14.25;6.20;;;12.40;99.90;;;;;;5035935;28;20493;-54
2024/02/16 11:08:13;;;;;;;15.05;7.32;;;12.40;99.90;;;;;;5045232;28;20541;-53
2024/02/16 11:10:39;;;;;;;17.80;6.63;;;12.50;99.90;;;;;;5056276;28;20469;-54
2024/02/16 11:13:04;;;;;;;12.68;6.47;;;12.50;99.90;;;;;;5054821;28;20033;-54
2024/02/16 11:15:35;;;;;;;19.48;6.70;;;12.60;99.90;;;;;;5047050;28;20033;-54
2024/02/16 11:18:02;;;;;;;27.77;7.82;;;12.50;99.90;;;;;;5044512;28;20116;-48
2024/02/16 11:20:29;;;;;;;17.80;7.72;;;12.40;99.90;;;;;;5055449;28;20367;-54
2024/02/16 11:23:07;;;;;;;13.80;6.70;;;12.40;99.90;;;;;;5047101;28;20029;-53
2024/02/16 11:25:33;;;;;;;12.48;6.47;;;12.40;99.90;;;;;;5035456;28;20076;-58
2024/02/16 11:27:59;;;;;;;16.45;7.15;;;12.40;99.90;;;;;;5035223;28;20041;-51
2024/02/16 11:30:25;;;;;;;13.75;6.35;;;12.40;99.90;;;;;;5034312;28;20517;-55
2024/02/16 11:32:51;;;;;;;17.02;6.32;;;12.40;99.90;;;;;;5038860;28;20018;-58
2024/02/16 11:35:17;;;;;;;14.15;6.28;;;12.50;99.90;;;;;;5037218;28;20053;-53
2024/02/16 11:37:45;;;;;;;14.60;5.72;;;12.50;99.90;;;;;;5042559;28;20071;-51
2024/02/16 11:40:14;;;;;;;13.20;6.20;;;12.50;99.90;;;;;;5052852;28;20048;-51
2024/02/16 11:42:41;;;;;;;12.10;5.88;;;12.40;99.90;;;;;;5052386;28;20485;-54
2024/02/16 11:45:11;;;;;;;14.33;6.03;;;12.40;99.90;;;;;;5054411;28;20087;-53
2024/02/16 11:47:37;;;;;;;11.70;6.35;;;12.40;99.90;;;;;;5037041;28;20116;-54
2024/02/16 11:50:10;;;;;;;12.57;5.63;;;12.50;99.90;;;;;;5033426;28;20125;-53
2024/02/16 11:52:38;;;;;;;12.77;6.97;;;12.50;99.90;;;;;;5034754;28;20048;-54
2024/02/16 11:55:04;;;;;;;13.37;6.20;;;12.50;99.90;;;;;;5035588;28;20025;-54
2024/02/16 11:57:30;;;;;;;19.58;6.35;;;12.50;99.90;;;;;;5034667;28;20264;-56
2024/02/16 11:59:56;;;;;;;9.20;5.35;;;12.60;99.90;;;;;;5035053;28;20281;-56
2024/02/16 12:02:25;;;;;;;24.98;5.55;;;12.50;99.90;;;;;;5034634;28;20029;-53
2024/02/16 12:05:01;;;;;;;12.95;5.05;;;12.40;99.90;;;;;;5050706;28;20028;-53
2024/02/16 12:07:28;;;;;;;6.57;4.10;;;12.40;99.90;;;;;;5044085;28;20033;-55
2024/02/16 12:10:01;;;;;;;5.95;3.95;;;12.40;99.90;;;;;;5034786;28;20495;-55
2024/02/16 12:12:27;;;;;;;5.25;3.90;;;12.40;99.90;;;;;;5033404;28;20033;-52
2024/02/16 12:14:54;;;;;;;3.85;2.92;;;12.40;99.90;;;;;;5034326;28;20029;-55
2024/02/16 12:17:19;;;;;;;6.65;2.55;;;12.30;99.90;;;;;;5032877;28;20021;-43
2024/02/16 12:19:46;;;;;;;3.22;2.42;;;12.30;99.90;;;;;;5047595;28;20060;-41
2024/02/16 12:22:21;;;;;;;10.77;5.57;;;12.30;99.90;;;;;;5047609;28;20018;-43
2024/02/16 12:24:50;;;;;;;5.90;2.80;;;12.40;99.90;;;;;;5034620;28;20034;-41
2024/02/16 12:27:15;;;;;;;4.53;2.55;;;12.40;99.90;;;;;;5033545;28;20044;-41
2024/02/16 12:29:41;;;;;;;2.90;2.13;;;12.40;99.90;;;;;;5034448;28;20029;-41
2024/02/16 12:32:09;;;;;;;3.33;2.33;;;12.50;99.90;;;;;;5034023;28;20022;-43
2024/02/16 12:34:37;;;;;;;7.25;2.35;;;12.60;99.90;;;;;;5034181;28;20044;-42
2024/02/16 12:37:07;;;;;;;7.70;3.42;;;12.70;99.90;;;;;;5035092;28;20017;-43
2024/02/16 12:39:35;;;;;;;4.38;1.73;;;12.70;99.90;;;;;;5033953;28;20087;-42
2024/02/16 12:42:01;;;;;;;3.28;2.05;;;12.70;99.90;;;;;;5034227;28;20052;-44
2024/02/16 12:44:27;;;;;;;3.88;3.17;;;12.70;99.90;;;;;;5033815;28;20115;-43
2024/02/16 12:46:52;;;;;;;2.55;2.33;;;12.60;99.90;;;;;;5034192;28;20030;-43